Time;durP1;ratioP1;P1;durP2;ratioP2;P2;SDS_P1;SDS_P2;PMS_P1;PMS_P2;Temp;Humidity;BMP_temperature;BMP_pressure;BME280_temperature;BME280_humidity;BME280_pressure;Samples;Min_cycle;Max_cycle;Signal;HPM_P1;HPM_P2
2022/01/28 00:00:36;;;;;;;38.55;13.45;;;;;;;1.07;72.21;99232.34;1688541;84;21120;-88
2022/01/28 00:03:09;;;;;;;35.48;11.83;;;;;;;1.04;72.00;99222.07;1701024;84;21043;-90
2022/01/28 00:05:37;;;;;;;31.25;12.73;;;;;;;0.98;72.29;99222.41;1699379;84;21499;-90
2022/01/28 00:08:05;;;;;;;34.95;12.88;;;;;;;0.96;72.47;99225.36;1700407;84;21032;-89
2022/01/28 00:10:33;;;;;;;36.77;13.20;;;;;;;0.93;73.24;99217.63;1695215;84;21027;-88
2022/01/28 00:15:33;;;;;;;31.45;11.83;;;;;;;0.88;72.86;99201.77;1700377;84;21099;-90
2022/01/28 00:39:14;;;;;;;35.65;12.07;;;;;;;0.51;74.62;99187.09;1697936;83;20985;-86
2022/01/28 00:41:41;;;;;;;29.02;12.15;;;;;;;0.46;74.97;99182.30;1735484;82;21014;-90
2022/01/28 00:44:07;;;;;;;31.48;11.68;;;;;;;0.42;75.13;99175.42;1741800;82;20987;-86
2022/01/28 00:46:34;;;;;;;38.10;11.93;;;;;;;0.43;74.38;99180.99;1737576;83;20994;-86
2022/01/28 00:49:00;;;;;;;31.02;11.20;;;;;;;0.39;75.03;99179.65;1735381;83;20995;-82
2022/01/28 00:51:27;;;;;;;36.85;13.38;;;;;;;0.37;75.45;99176.63;1729650;83;21400;-90
2022/01/28 00:53:53;;;;;;;33.35;12.35;;;;;;;0.35;75.57;99177.87;1737007;82;21495;-83
2022/01/28 00:56:19;;;;;;;33.78;14.18;;;;;;;0.37;75.16;99173.64;1737558;83;20974;-90
2022/01/28 00:58:46;;;;;;;37.15;11.65;;;;;;;0.36;75.64;99167.25;1736698;83;20982;-83
2022/01/28 01:01:12;;;;;;;31.10;12.65;;;;;;;0.40;74.81;99171.58;1737850;82;20931;-88
2022/01/28 01:03:39;;;;;;;30.97;11.48;;;;;;;0.41;74.99;99167.31;1735958;83;21010;-87
2022/01/28 01:06:05;;;;;;;34.20;13.20;;;;;;;0.41;75.37;99157.09;1737251;82;20987;-87
2022/01/28 01:08:31;;;;;;;25.97;11.30;;;;;;;0.43;75.14;99156.69;1735856;82;21023;-89
2022/01/28 01:10:58;;;;;;;37.67;12.68;;;;;;;0.43;75.20;99161.38;1727988;83;21511;-88
2022/01/28 01:13:24;;;;;;;36.90;12.60;;;;;;;0.43;75.32;99172.04;1732188;82;21012;-87
2022/01/28 01:15:55;;;;;;;39.40;13.32;;;;;;;0.44;75.56;99169.52;1733291;83;20922;-87
2022/01/28 01:18:25;;;;;;;31.70;11.22;;;;;;;0.45;75.46;99163.97;1697614;82;21000;-89
2022/01/28 01:23:23;;;;;;;31.97;11.93;;;;;;;0.44;75.58;99160.95;1723044;82;21044;-90
2022/01/28 01:25:49;;;;;;;37.50;14.33;;;;;;;0.48;75.03;99163.61;1716771;83;20987;-85
2022/01/28 01:28:14;;;;;;;41.95;14.15;;;;;;;0.47;75.37;99166.98;1711798;83;21437;-90
2022/01/28 01:30:43;;;;;;;39.05;13.90;;;;;;;0.45;75.69;99161.41;1686779;83;21013;-82
2022/01/28 01:33:10;;;;;;;41.65;16.25;;;;;;;0.46;75.55;99151.61;1700308;83;20956;-89
2022/01/28 01:35:38;;;;;;;33.02;13.68;;;;;;;0.43;75.84;99152.86;1699293;83;21036;-83
2022/01/28 01:38:06;;;;;;;41.80;15.28;;;;;;;0.42;75.55;99155.84;1700482;83;21126;-87
2022/01/28 01:40:54;;;;;;;34.45;13.20;;;;;;;0.41;76.14;99156.66;1698171;84;21003;-87
2022/01/28 01:46:15;;;;;;;26.80;11.10;;;;;;;0.41;75.63;99155.81;1700887;84;21007;-86
2022/01/28 01:53:47;;;;;;;35.30;13.45;;;;;;;0.40;75.51;99134.50;1701089;84;20982;-86
2022/01/28 01:56:14;;;;;;;32.33;12.15;;;;;;;0.36;76.18;99131.02;1717415;83;21511;-83
2022/01/28 01:58:41;;;;;;;31.05;12.28;;;;;;;0.34;76.53;99130.56;1696540;85;21443;-87
2022/01/28 02:01:08;;;;;;;32.42;10.95;;;;;;;0.35;76.17;99124.59;1696052;83;21474;-87
2022/01/28 02:03:34;;;;;;;32.13;12.82;;;;;;;0.35;76.04;99128.00;1696852;85;20993;-87
2022/01/28 02:06:01;;;;;;;24.07;10.23;;;;;;;0.35;76.10;99125.88;1695663;85;20996;-90
2022/01/28 02:08:34;;;;;;;28.80;11.68;;;;;;;0.35;76.09;99124.59;1696711;84;21013;-88
2022/01/28 02:11:01;;;;;;;30.72;11.05;;;;;;;0.33;76.30;99124.98;1695835;85;21043;-86
2022/01/28 02:13:35;;;;;;;32.05;12.05;;;;;;;0.36;75.79;99116.10;1696638;83;21004;-86
2022/01/28 02:16:01;;;;;;;37.13;12.20;;;;;;;0.35;76.34;99130.56;1705478;83;21016;-86
2022/01/28 02:18:28;;;;;;;31.52;12.58;;;;;;;0.36;76.03;99127.18;1693851;84;20975;-84
2022/01/28 02:20:59;;;;;;;27.77;11.48;;;;;;;0.35;76.40;99122.03;1709210;84;21982;-88
2022/01/28 02:23:23;;;;;;;32.30;12.55;;;;;;;0.37;76.55;99117.80;1696146;84;20961;-84
2022/01/28 02:25:50;;;;;;;33.23;12.05;;;;;;;0.38;76.33;99113.15;1695866;85;20970;-89
2022/01/28 02:28:20;;;;;;;32.48;11.12;;;;;;;0.39;76.22;99113.58;1714241;83;20959;-83
2022/01/28 02:30:45;;;;;;;34.25;13.68;;;;;;;0.44;75.81;99104.29;1696080;84;21497;-89
2022/01/28 02:33:15;;;;;;;30.23;12.47;;;;;;;0.42;76.06;99097.41;1673004;85;21016;-86
2022/01/28 02:35:42;;;;;;;29.12;12.58;;;;;;;0.41;76.25;99097.83;1714463;83;20928;-88
2022/01/28 02:38:11;;;;;;;30.10;11.05;;;;;;;0.41;76.10;99102.09;1690808;83;21134;-88
2022/01/28 02:40:39;;;;;;;38.00;13.28;;;;;;;0.41;76.63;99100.82;1691569;85;21136;-83
2022/01/28 02:43:30;;;;;;;36.48;14.07;;;;;;;0.32;76.85;99092.56;1688826;84;21063;-89
2022/01/28 02:45:47;;;;;;;31.00;11.53;;;;;;;0.24;77.85;99082.63;1689710;85;20986;-85
2022/01/28 02:48:18;;;;;;;32.33;13.80;;;;;;;0.27;76.71;99089.94;1688853;85;21047;-84
2022/01/28 02:51:02;;;;;;;32.73;11.95;;;;;;;0.16;78.65;99100.40;1667172;85;21007;-83
2022/01/28 02:53:25;;;;;;;35.17;13.68;;;;;;;0.16;77.82;99087.22;1648925;86;20952;-83
2022/01/28 02:55:58;;;;;;;33.88;12.30;;;;;;;0.15;78.22;99082.08;1701964;84;21016;-82
2022/01/28 02:58:22;;;;;;;34.08;12.28;;;;;;;0.12;78.90;99091.84;1700148;84;20955;-81
2022/01/28 03:00:48;;;;;;;29.98;11.70;;;;;;;0.11;78.40;99100.34;1702626;84;21006;-81
2022/01/28 03:03:22;;;;;;;40.67;14.45;;;;;;;0.09;78.93;99097.31;1693833;84;21007;-82
2022/01/28 03:05:48;;;;;;;30.23;11.97;;;;;;;0.06;79.15;99088.30;1701044;84;20970;-83
2022/01/28 03:08:14;;;;;;;32.90;11.90;;;;;;;0.02;78.60;99087.81;1703569;84;20999;-81
2022/01/28 03:13:31;;;;;;;33.83;12.80;;;;;;;-0.11;80.65;99096.55;1702673;84;20931;-81
2022/01/28 03:15:52;;;;;;;41.40;14.47;;;;;;;-0.13;81.01;99096.94;1643052;87;20987;-82
2022/01/28 03:18:18;;;;;;;40.45;12.82;;;;;;;-0.12;80.77;99114.41;1669777;86;20988;-84
2022/01/28 03:23:20;;;;;;;34.80;12.70;;;;;;;-0.14;81.25;99107.13;1694231;82;21002;-83
2022/01/28 03:25:47;;;;;;;38.00;12.98;;;;;;;-0.12;81.32;99091.01;1694067;85;21004;-83
2022/01/28 03:28:16;;;;;;;38.15;14.90;;;;;;;-0.10;81.71;99102.52;1670170;83;21016;-83
2022/01/28 03:30:42;;;;;;;37.67;14.25;;;;;;;-0.12;82.88;99083.34;1703384;83;20955;-82
2022/01/28 03:33:09;;;;;;;39.10;15.88;;;;;;;-0.14;82.64;99078.63;1701590;84;20960;-84
2022/01/28 03:35:36;;;;;;;37.67;14.18;;;;;;;-0.19;83.81;99086.61;1698437;84;21518;-83
2022/01/28 03:38:07;;;;;;;38.08;12.60;;;;;;;-0.24;83.99;99078.87;1693364;83;21005;-83
2022/01/28 03:40:36;;;;;;;45.65;15.58;;;;;;;-0.23;83.52;99071.64;1736333;81;20944;-82
2022/01/28 03:43:04;;;;;;;34.53;13.28;;;;;;;-0.23;83.76;99068.23;1751647;82;20945;-82
2022/01/28 03:45:30;;;;;;;32.35;13.58;;;;;;;-0.22;83.73;99060.59;1745196;80;20998;-82
2022/01/28 03:47:57;;;;;;;40.70;14.43;;;;;;;-0.22;83.06;99050.38;1707960;81;21063;-82
2022/01/28 03:50:23;;;;;;;34.65;12.00;;;;;;;-0.21;83.82;99053.36;1697300;83;20956;-83
2022/01/28 03:52:49;;;;;;;35.65;13.13;;;;;;;-0.17;83.61;99053.00;1744035;82;20991;-83
2022/01/28 03:55:16;;;;;;;42.45;15.35;;;;;;;-0.15;84.00;99066.67;1746489;82;21476;-85
2022/01/28 03:57:42;;;;;;;39.73;16.02;;;;;;;-0.11;83.53;99061.20;1746531;82;20957;-82
2022/01/28 04:00:10;;;;;;;37.90;13.93;;;;;;;-0.10;83.88;99063.78;1743544;82;21435;-81
2022/01/28 04:02:41;;;;;;;27.25;10.35;;;;;;;-0.07;83.89;99060.41;1751429;82;20933;-84
2022/01/28 04:13:25;;;;;;;40.90;14.03;;;;;;;0.09;84.08;99075.16;1696336;83;21030;-85
2022/01/28 04:16:15;;;;;;;37.78;13.40;;;;;;;0.11;84.77;99072.64;1696324;84;21129;-83
2022/01/28 04:18:19;;;;;;;28.52;12.03;;;;;;;0.20;83.90;99080.47;1754472;81;20976;-84
2022/01/28 04:20:46;;;;;;;31.15;11.90;;;;;;;0.22;83.96;99084.30;1750455;81;21519;-82
2022/01/28 04:23:12;;;;;;;34.15;12.43;;;;;;;0.26;83.91;99080.95;1701389;82;21004;-81
2022/01/28 04:25:38;;;;;;;33.23;12.70;;;;;;;0.31;83.87;99074.23;1715390;83;21039;-82
2022/01/28 04:28:05;;;;;;;30.12;12.43;;;;;;;0.37;83.78;99069.21;1744774;80;20961;-84
2022/01/28 04:30:32;;;;;;;34.20;13.95;;;;;;;0.42;83.75;99057.77;1739427;82;20960;-83
2022/01/28 04:32:58;;;;;;;37.50;14.68;;;;;;;0.46;83.48;99067.20;1696255;85;20960;-89
2022/01/28 04:35:25;;;;;;;33.28;13.00;;;;;;;0.50;83.39;99062.60;1747778;82;21022;-90
2022/01/28 04:38:10;;;;;;;32.60;14.00;;;;;;;0.53;83.21;99071.58;1748639;82;21508;-88
2022/01/28 04:40:34;;;;;;;37.10;12.55;;;;;;;0.53;82.62;99071.16;1694948;83;21002;-87
2022/01/28 04:43:03;;;;;;;32.65;13.22;;;;;;;0.53;82.42;99060.92;1729349;81;21060;-88
2022/01/28 04:50:53;;;;;;;28.80;10.45;;;;;;;0.45;82.75;99046.31;1718445;82;21065;-83
2022/01/28 05:03:41;;;;;;;33.48;12.43;;;;;;;0.34;83.46;98983.09;1761230;81;20948;-88
2022/01/28 05:27:11;;;;;;;32.33;12.68;;;;;;;0.20;85.13;99021.66;1734580;81;20972;-82
2022/01/28 05:29:32;;;;;;;38.63;14.87;;;;;;;0.16;85.78;99033.92;1744297;80;21598;-84
2022/01/28 05:31:59;;;;;;;35.75;13.55;;;;;;;0.16;85.73;99028.81;1753579;80;20971;-83
2022/01/28 05:34:27;;;;;;;35.45;12.35;;;;;;;0.16;85.90;99033.92;1754983;80;20963;-83
2022/01/28 05:36:56;;;;;;;38.53;13.88;;;;;;;0.15;86.17;99036.91;1754129;81;20964;-80
2022/01/28 05:39:22;;;;;;;32.35;13.10;;;;;;;0.26;85.43;99040.05;1745323;81;20962;-81
2022/01/28 05:41:49;;;;;;;33.95;13.53;;;;;;;0.31;85.78;99051.22;1701731;84;20952;-86
2022/01/28 05:44:15;;;;;;;27.77;12.28;;;;;;;0.38;85.13;99051.34;1731001;82;20938;-87
2022/01/28 05:46:44;;;;;;;30.68;11.30;;;;;;;0.47;85.76;99060.84;1730554;83;20966;-85
2022/01/28 05:49:10;;;;;;;36.28;11.43;;;;;;;0.61;85.31;99064.02;1765378;81;20980;-82
2022/01/28 05:51:36;;;;;;;30.70;11.48;;;;;;;0.79;85.11;99086.02;1765402;81;20938;-81
2022/01/28 05:54:03;;;;;;;35.60;11.03;;;;;;;0.91;85.05;99088.75;1718629;83;21035;-81
2022/01/28 05:56:31;;;;;;;28.32;11.35;;;;;;;1.04;84.54;99092.34;1732088;83;21001;-87
2022/01/28 05:58:59;;;;;;;33.78;14.03;;;;;;;1.15;84.22;99091.19;1730826;82;20976;-88
2022/01/28 06:01:25;;;;;;;29.92;12.88;;;;;;;1.25;83.71;99101.13;1753699;82;20995;-90
2022/01/28 06:03:52;;;;;;;28.45;12.68;;;;;;;1.27;83.38;99112.26;1755956;81;21035;-89
2022/01/28 06:06:20;;;;;;;29.60;12.37;;;;;;;1.27;83.06;99113.54;1748540;81;21008;-88
2022/01/28 06:08:48;;;;;;;33.78;12.82;;;;;;;1.29;82.92;99110.58;1756538;81;21003;-85
2022/01/28 06:11:16;;;;;;;29.75;11.88;;;;;;;1.32;82.89;99114.04;1756536;81;21007;-88
2022/01/28 06:13:43;;;;;;;29.32;12.55;;;;;;;1.33;83.06;99112.33;1756325;81;20983;-84
2022/01/28 06:16:11;;;;;;;30.52;13.70;;;;;;;1.34;83.14;99114.92;1756486;82;21032;-88
2022/01/28 06:18:37;;;;;;;36.03;14.50;;;;;;;1.39;83.02;99110.72;1756049;81;21515;-88
2022/01/28 06:21:04;;;;;;;30.92;14.10;;;;;;;1.44;82.88;99131.69;1756089;82;20982;-89
2022/01/28 06:23:31;;;;;;;34.30;15.23;;;;;;;1.43;82.78;99136.36;1756096;81;21030;-88
2022/01/28 06:25:58;;;;;;;30.57;11.10;;;;;;;1.39;82.68;99129.05;1752760;81;20992;-89
2022/01/28 06:28:25;;;;;;;33.42;12.07;;;;;;;1.39;82.33;99122.25;1730022;83;21542;-88
2022/01/28 06:30:52;;;;;;;28.70;11.97;;;;;;;1.36;82.47;99132.45;1729913;83;21002;-85
2022/01/28 06:33:18;;;;;;;34.05;13.30;;;;;;;1.35;82.81;99128.18;1763550;81;20959;-87
2022/01/28 06:35:46;;;;;;;29.92;12.00;;;;;;;1.38;82.90;99134.60;1764720;81;20994;-83
2022/01/28 06:38:13;;;;;;;36.00;13.90;;;;;;;1.41;82.89;99131.21;1708699;83;21013;-88
2022/01/28 06:40:41;;;;;;;33.98;14.03;;;;;;;1.44;82.86;99146.63;1686376;83;21043;-90
2022/01/28 06:43:11;;;;;;;31.25;13.75;;;;;;;1.44;82.89;99149.20;1698082;84;21032;-89
2022/01/28 06:45:41;;;;;;;32.65;13.72;;;;;;;1.44;83.00;99154.75;1713667;83;21079;-89
2022/01/28 06:48:07;;;;;;;33.55;12.28;;;;;;;1.41;83.13;99177.33;1715097;82;21007;-90
2022/01/28 06:50:34;;;;;;;34.63;13.13;;;;;;;1.44;82.63;99176.53;1714226;83;21478;-89
2022/01/28 06:53:01;;;;;;;34.65;13.13;;;;;;;1.45;82.98;99171.83;1715960;83;21542;-89
2022/01/28 06:55:27;;;;;;;29.23;13.15;;;;;;;1.48;82.86;99177.00;1714250;84;21023;-87
2022/01/28 06:57:55;;;;;;;35.85;13.78;;;;;;;1.52;82.94;99171.92;1699623;84;21039;-88
2022/01/28 07:00:22;;;;;;;29.70;12.53;;;;;;;1.57;82.84;99161.33;1714788;83;21011;-84
2022/01/28 07:02:50;;;;;;;41.60;17.17;;;;;;;1.52;83.11;99165.52;1715944;83;20967;-89
2022/01/28 07:05:16;;;;;;;37.80;16.82;;;;;;;1.45;83.34;99171.83;1699813;84;21035;-89
2022/01/28 07:07:43;;;;;;;41.55;17.70;;;;;;;1.37;83.43;99172.61;1676352;82;21500;-87
2022/01/28 07:10:09;;;;;;;39.65;16.67;;;;;;;1.33;83.27;99172.13;1714860;82;21031;-90
2022/01/28 07:12:37;;;;;;;42.35;14.58;;;;;;;1.25;84.13;99182.66;1702996;82;21128;-89
2022/01/28 07:15:05;;;;;;;40.50;15.72;;;;;;;1.26;83.67;99170.31;1716083;83;21495;-88
2022/01/28 07:17:31;;;;;;;35.13;14.53;;;;;;;1.25;83.38;99175.41;1705315;84;21000;-85
2022/01/28 07:19:58;;;;;;;37.60;13.75;;;;;;;1.22;84.37;99143.38;1716095;82;20984;-89
2022/01/28 07:22:24;;;;;;;40.92;15.20;;;;;;;1.25;84.45;99142.11;1719787;82;21029;-88
2022/01/28 07:24:50;;;;;;;38.60;15.53;;;;;;;1.26;84.93;99138.30;1719980;81;21069;-88
2022/01/28 07:27:19;;;;;;;36.83;15.90;;;;;;;1.29;84.68;99137.04;1710323;82;21055;-91
2022/01/28 07:29:48;;;;;;;42.35;17.27;;;;;;;1.31;84.69;99138.34;1688754;84;21693;-91
2022/01/28 07:32:15;;;;;;;36.50;15.40;;;;;;;1.32;84.44;99133.68;1697219;83;21002;-92
2022/01/28 07:34:42;;;;;;;36.42;14.58;;;;;;;1.34;84.03;99130.28;1669579;84;20968;-91
2022/01/28 07:37:08;;;;;;;39.20;14.90;;;;;;;1.37;84.11;99123.05;1713776;83;21026;-84
2022/01/28 07:39:35;;;;;;;38.33;15.00;;;;;;;1.40;84.03;99111.58;1691099;83;21021;-88
2022/01/28 07:42:02;;;;;;;33.63;14.25;;;;;;;1.48;83.67;99104.84;1712485;83;21056;-88
2022/01/28 07:44:29;;;;;;;37.20;16.20;;;;;;;1.45;83.91;99099.66;1716129;82;21006;-87
2022/01/28 07:46:55;;;;;;;43.92;17.15;;;;;;;1.47;84.00;99111.22;1706907;82;21046;-89
2022/01/28 07:49:22;;;;;;;40.03;16.20;;;;;;;1.47;83.79;99127.44;1712333;84;20975;-90
2022/01/28 07:51:48;;;;;;;44.27;16.02;;;;;;;1.47;83.73;99152.21;1707484;83;21031;-90
2022/01/28 07:54:15;;;;;;;36.83;15.78;;;;;;;1.50;83.37;99169.77;1686213;85;21492;-91
2022/01/28 07:56:43;;;;;;;37.67;15.40;;;;;;;1.54;82.81;99157.43;1665797;85;21039;-91
2022/01/28 07:59:09;;;;;;;36.88;15.25;;;;;;;1.53;82.89;99156.13;1722478;81;21574;-91
2022/01/28 08:01:36;;;;;;;41.98;16.35;;;;;;;1.53;82.94;99158.29;1719800;82;21447;-91
2022/01/28 08:04:03;;;;;;;38.45;15.28;;;;;;;1.52;83.28;99133.49;1714606;83;20939;-90
2022/01/28 08:06:30;;;;;;;40.80;18.30;;;;;;;1.58;83.29;99145.52;1713806;80;21132;-90
2022/01/28 08:08:59;;;;;;;39.18;15.85;;;;;;;1.64;83.02;99140.89;1693793;83;20967;-91
2022/01/28 08:11:25;;;;;;;34.38;14.93;;;;;;;1.64;82.48;99145.59;1728061;81;21035;-91
2022/01/28 08:13:52;;;;;;;35.25;14.65;;;;;;;1.74;82.00;99156.81;1730650;81;21029;-91
2022/01/28 08:16:19;;;;;;;38.25;16.07;;;;;;;1.74;81.75;99148.70;1728810;81;20962;-89
2022/01/28 08:18:45;;;;;;;31.37;11.97;;;;;;;1.81;81.37;99156.45;1739732;81;20944;-90
2022/01/28 08:21:12;;;;;;;36.42;14.13;;;;;;;1.87;81.11;99159.08;1702005;83;21005;-91
2022/01/28 08:23:39;;;;;;;36.15;12.65;;;;;;;1.88;80.95;99167.22;1750438;78;21080;-88
2022/01/28 08:26:05;;;;;;;36.33;15.48;;;;;;;1.97;80.99;99162.20;1791954;80;20993;-88
2022/01/28 08:28:32;;;;;;;46.50;15.20;;;;;;;1.96;80.86;99171.58;1798242;78;21007;-90
2022/01/28 08:30:59;;;;;;;32.42;13.75;;;;;;;2.03;80.62;99162.27;1787155;80;20972;-91
2022/01/28 08:33:26;;;;;;;35.10;15.20;;;;;;;2.03;80.51;99155.86;1782612;80;20968;-92
2022/01/28 08:35:54;;;;;;;43.13;17.35;;;;;;;2.04;80.38;99154.99;1786543;80;20960;-91
2022/01/28 08:38:26;;;;;;;46.68;20.00;;;;;;;2.04;80.53;99135.77;1785891;79;21435;-91
2022/01/28 08:40:55;;;;;;;37.63;16.48;;;;;;;2.02;80.93;99127.19;1778977;80;20951;-91
2022/01/28 08:43:22;;;;;;;44.18;15.65;;;;;;;2.13;80.95;99133.69;1774146;79;21041;-92
2022/01/28 08:45:49;;;;;;;32.30;13.30;;;;;;;2.16;80.79;99135.87;1784603;78;20988;-91
2022/01/28 08:48:15;;;;;;;33.92;13.93;;;;;;;2.17;80.78;99144.02;1784018;79;20994;-92
2022/01/28 08:50:42;;;;;;;28.73;13.25;;;;;;;2.14;81.11;99129.87;1780337;80;21004;-92
2022/01/28 08:53:11;;;;;;;35.03;14.90;;;;;;;2.15;81.30;99148.27;1783706;80;21453;-91
2022/01/28 08:55:39;;;;;;;44.00;15.95;;;;;;;2.18;81.08;99149.57;1776835;80;20928;-91
2022/01/28 08:58:08;;;;;;;44.27;15.90;;;;;;;2.17;81.16;99155.56;1797177;79;20980;-91
2022/01/28 09:00:35;;;;;;;41.90;15.28;;;;;;;2.14;81.30;99159.36;1789354;79;20969;-88
2022/01/28 09:03:01;;;;;;;39.80;17.05;;;;;;;2.01;82.22;99157.55;1782557;78;20987;-87
2022/01/28 09:05:31;;;;;;;39.20;15.78;;;;;;;2.01;82.51;99169.48;1777979;79;20999;-87
2022/01/28 09:07:57;;;;;;;41.15;18.50;;;;;;;1.96;82.98;99177.13;1782316;79;21015;-87
2022/01/28 09:10:29;;;;;;;44.67;18.17;;;;;;;2.03;82.88;99185.34;1782361;79;21039;-90
2022/01/28 09:15:28;;;;;;;46.02;17.02;;;;;;;2.06;82.46;99194.34;1754704;80;20985;-88
2022/01/28 09:17:54;;;;;;;40.40;15.70;;;;;;;2.06;82.41;99205.02;1793842;79;20960;-89
2022/01/28 09:20:21;;;;;;;39.03;15.03;;;;;;;2.10;81.99;99199.08;1787018;79;21041;-91
2022/01/28 09:22:47;;;;;;;44.53;15.98;;;;;;;2.13;82.14;99197.81;1752980;79;20987;-86
2022/01/28 09:25:14;;;;;;;36.80;14.83;;;;;;;2.20;82.08;99209.87;1791378;79;21019;-85
2022/01/28 09:27:41;;;;;;;31.20;13.35;;;;;;;2.15;82.22;99202.14;1781639;78;20956;-87
2022/01/28 09:30:08;;;;;;;40.05;16.65;;;;;;;2.29;82.21;99197.15;1782694;80;21050;-87
2022/01/28 09:32:35;;;;;;;43.75;17.92;;;;;;;2.28;81.95;99183.87;1746909;80;21037;-87
2022/01/28 09:35:02;;;;;;;39.90;17.27;;;;;;;2.35;81.76;99182.24;1777056;80;20998;-89
2022/01/28 09:37:30;;;;;;;40.33;16.75;;;;;;;2.34;81.75;99182.64;1784868;80;21008;-85
2022/01/28 09:39:56;;;;;;;40.75;16.55;;;;;;;2.42;81.46;99172.45;1778139;80;21027;-89
2022/01/28 09:42:27;;;;;;;38.60;14.20;;;;;;;2.53;81.17;99164.86;1763708;80;21317;-91
2022/01/28 09:44:52;;;;;;;37.45;15.25;;;;;;;2.61;80.71;99171.31;1719700;82;20942;-89
2022/01/28 09:47:20;;;;;;;36.63;14.60;;;;;;;2.58;80.21;99182.00;1720236;81;20994;-88
2022/01/28 09:49:46;;;;;;;35.90;13.32;;;;;;;2.64;80.22;99183.76;1717549;82;21025;-92
2022/01/28 09:52:13;;;;;;;36.80;14.83;;;;;;;2.58;80.50;99180.71;1727109;82;20983;-89
2022/01/28 09:54:46;;;;;;;39.23;15.05;;;;;;;2.55;80.36;99176.86;1730236;82;21079;-89
2022/01/28 09:57:10;;;;;;;38.33;15.63;;;;;;;2.54;80.20;99174.27;1728811;81;21042;-88
2022/01/28 09:59:38;;;;;;;36.13;16.10;;;;;;;2.45;80.24;99176.34;1723910;82;20968;-90
2022/01/28 10:02:05;;;;;;;39.23;15.85;;;;;;;2.50;80.11;99197.75;1721355;82;21014;-89
2022/01/28 10:04:32;;;;;;;38.40;14.28;;;;;;;2.47;79.92;99198.17;1731178;82;20970;-90
2022/01/28 10:06:58;;;;;;;31.42;12.37;;;;;;;2.49;79.95;99188.35;1717924;82;21463;-88
2022/01/28 10:09:25;;;;;;;37.65;14.53;;;;;;;2.51;80.12;99178.95;1712942;82;21499;-87
2022/01/28 10:11:56;;;;;;;37.73;16.05;;;;;;;2.45;80.22;99175.06;1717830;81;21051;-89
2022/01/28 10:14:26;;;;;;;35.20;16.65;;;;;;;2.49;80.03;99179.38;1740776;81;21007;-90
2022/01/28 10:17:01;;;;;;;36.28;15.72;;;;;;;2.45;80.04;99189.17;1759053;80;21001;-91
2022/01/28 10:19:38;;;;;;;41.55;14.95;;;;;;;2.55;79.70;99188.84;1772011;80;21102;-92
2022/01/28 10:22:17;;;;;;;35.43;14.10;;;;;;;2.51;79.65;99187.94;1770916;80;21001;-91
2022/01/28 10:24:44;;;;;;;33.23;13.28;;;;;;;2.46;79.76;99185.74;1776349;80;21032;-91
2022/01/28 10:27:10;;;;;;;35.35;14.68;;;;;;;2.46;79.83;99201.57;1779060;79;20999;-90
2022/01/28 10:29:40;;;;;;;35.45;13.55;;;;;;;2.53;79.95;99205.92;1783293;79;20959;-90
2022/01/28 10:32:10;;;;;;;30.77;13.93;;;;;;;2.62;79.96;99212.84;1764628;79;20961;-89
2022/01/28 10:34:49;;;;;;;34.70;15.40;;;;;;;2.58;79.39;99208.95;1788868;79;21000;-88
2022/01/28 10:37:24;;;;;;;41.37;15.38;;;;;;;2.64;79.16;99211.99;1762545;80;20985;-90
2022/01/28 10:40:00;;;;;;;37.88;15.32;;;;;;;2.68;79.31;99216.73;1767320;80;21009;-90
2022/01/28 10:42:42;;;;;;;35.35;14.75;;;;;;;2.71;79.07;99211.21;1756890;79;20977;-84
2022/01/28 10:45:16;;;;;;;37.55;14.33;;;;;;;2.77;78.95;99217.68;1807837;79;20936;-89
2022/01/28 10:47:54;;;;;;;30.82;14.28;;;;;;;2.78;78.11;99215.97;1749398;80;21056;-86
2022/01/28 10:50:29;;;;;;;40.15;14.40;;;;;;;2.76;77.77;99207.39;1739613;82;21005;-89
2022/01/28 10:53:09;;;;;;;28.57;12.80;;;;;;;2.76;77.98;99203.54;1763092;81;21047;-91
2022/01/28 10:55:43;;;;;;;29.57;11.78;;;;;;;2.81;77.85;99200.59;1755312;82;20954;-88
2022/01/28 10:58:13;;;;;;;28.10;11.75;;;;;;;2.85;78.11;99198.48;1755376;81;20986;-90
2022/01/28 11:00:49;;;;;;;31.55;14.40;;;;;;;2.95;78.06;99197.70;1740979;82;20988;-90
2022/01/28 11:03:18;;;;;;;29.27;12.30;;;;;;;2.94;76.93;99204.95;1738855;82;21028;-90
2022/01/28 11:05:45;;;;;;;32.25;13.13;;;;;;;3.03;77.06;99205.47;1729286;82;21004;-90
2022/01/28 11:08:14;;;;;;;32.08;14.63;;;;;;;3.07;76.63;99216.63;1748149;82;21491;-92
2022/01/28 11:10:43;;;;;;;31.62;13.13;;;;;;;3.14;76.36;99213.23;1774424;80;21480;-92
2022/01/28 11:13:10;;;;;;;31.05;13.22;;;;;;;3.16;75.91;99223.09;1742121;80;20997;-92
2022/01/28 11:15:37;;;;;;;28.77;13.32;;;;;;;3.27;76.47;99221.47;1744983;82;20964;-91
2022/01/28 11:18:05;;;;;;;29.98;13.75;;;;;;;3.34;74.98;99223.23;1809884;79;21019;-92
2022/01/28 11:20:39;;;;;;;33.40;13.88;;;;;;;3.41;75.12;99224.55;1772557;79;20967;-91
2022/01/28 11:23:43;;;;;;;31.25;12.95;;;;;;;3.44;74.74;99219.41;1762473;81;21550;-90
2022/01/28 11:26:37;;;;;;;26.95;11.88;;;;;;;3.46;74.18;99237.88;1740105;82;21007;-89
2022/01/28 11:29:14;;;;;;;26.48;11.00;;;;;;;3.45;73.99;99234.84;1757165;80;20981;-91
2022/01/28 11:31:51;;;;;;;23.55;10.00;;;;;;;3.43;74.58;99237.84;1729108;81;20999;-91
2022/01/28 11:34:27;;;;;;;30.02;13.62;;;;;;;3.44;74.24;99235.69;1805677;79;20940;-91
2022/01/28 11:37:02;;;;;;;29.37;13.48;;;;;;;3.40;74.07;99239.09;1808462;79;20928;-91
2022/01/28 11:39:38;;;;;;;31.60;13.70;;;;;;;3.39;74.02;99243.38;1744954;79;21486;-91
2022/01/28 11:42:10;;;;;;;30.12;13.35;;;;;;;3.43;74.27;99227.99;1810545;79;20981;-91
2022/01/28 11:44:56;;;;;;;27.95;13.10;;;;;;;3.36;73.75;99238.64;1807286;79;20979;-91
2022/01/28 11:47:29;;;;;;;31.15;12.78;;;;;;;3.33;73.54;99233.06;1810065;79;20984;-88
2022/01/28 11:50:14;;;;;;;;;;;;;;;3.30;73.42;99231.78;1829157;77;21004;-91
2022/01/28 11:52:51;;;;;;;;;;;;;;;3.29;73.67;99240.75;1826302;78;20106;-91
2022/01/28 11:55:26;;;;;;;26.85;11.18;;;;;;;3.23;73.83;99233.86;1807739;79;20120;-91
2022/01/28 11:58:05;;;;;;;22.98;11.38;;;;;;;3.22;74.23;99239.83;1822237;79;20999;-92
2022/01/28 12:00:47;;;;;;;25.32;11.85;;;;;;;3.21;74.20;99243.27;1800225;79;20990;-89
2022/01/28 12:03:23;;;;;;;22.98;11.80;;;;;;;3.24;74.74;99243.70;1811042;79;21045;-91
2022/01/28 12:05:56;;;;;;;28.98;12.05;;;;;;;3.27;74.12;99235.59;1813999;79;21015;-92
2022/01/28 12:11:07;;;;;;;24.37;12.10;;;;;;;3.22;73.87;99230.84;1780883;80;21004;-93
2022/01/28 12:14:02;;;;;;;29.37;12.10;;;;;;;3.24;73.75;99228.28;1762464;80;20952;-90
2022/01/28 12:16:40;;;;;;;28.23;11.43;;;;;;;3.17;73.91;99214.55;1759169;80;20967;-91
2022/01/28 12:19:16;;;;;;;28.23;11.12;;;;;;;3.16;73.87;99219.23;1763427;80;21008;-91
2022/01/28 12:22:10;;;;;;;23.87;10.98;;;;;;;3.12;74.18;99224.80;1770948;80;20967;-93
2022/01/28 12:24:38;;;;;;;30.02;12.18;;;;;;;3.12;74.47;99216.22;1762598;80;20991;-91
2022/01/28 12:27:07;;;;;;;29.67;13.20;;;;;;;3.09;74.84;99214.93;1767103;81;21032;-92
2022/01/28 12:29:47;;;;;;;27.13;12.37;;;;;;;3.04;74.69;99202.46;1762828;81;20986;-93
2022/01/28 12:32:23;;;;;;;35.50;14.60;;;;;;;3.05;74.63;99210.62;1760501;81;21028;-92
2022/01/28 12:34:50;;;;;;;24.75;12.95;;;;;;;3.01;74.76;99198.61;1761153;80;21036;-93
2022/01/28 12:37:21;;;;;;;30.02;12.58;;;;;;;2.96;74.69;99194.30;1770239;80;21026;-92
2022/01/28 12:39:54;;;;;;;25.05;10.40;;;;;;;2.95;74.66;99197.70;1767031;80;20987;-94
2022/01/28 12:42:23;;;;;;;22.05;10.63;;;;;;;2.95;74.71;99204.55;1766239;81;20996;-92
2022/01/28 12:44:54;;;;;;;24.02;10.55;;;;;;;2.95;74.84;99196.41;1766721;80;20987;-92
2022/01/28 12:47:21;;;;;;;32.55;11.95;;;;;;;2.96;75.10;99199.44;1765212;80;21009;-93
2022/01/28 12:49:56;;;;;;;32.60;13.05;;;;;;;2.93;75.47;99200.69;1765953;80;21034;-91
2022/01/28 12:52:23;;;;;;;30.80;14.55;;;;;;;2.97;75.52;99207.56;1760975;81;21447;-91
2022/01/28 12:54:50;;;;;;;33.15;13.98;;;;;;;2.99;75.27;99198.59;1765394;80;20953;-91
2022/01/28 12:57:19;;;;;;;27.77;12.85;;;;;;;2.95;75.23;99200.27;1765217;80;21050;-91
2022/01/28 12:59:49;;;;;;;30.00;12.88;;;;;;;2.97;75.21;99207.99;1758181;81;21507;-92
2022/01/28 13:02:18;;;;;;;30.25;12.30;;;;;;;2.95;75.15;99198.98;1760775;81;20956;-93